Time;durP1;ratioP1;P1;durP2;ratioP2;P2;SDS_P1;SDS_P2;PMS_P1;PMS_P2;Temp;Humidity;BMP_temperature;BMP_pressure;BME280_temperature;BME280_humidity;BME280_pressure;Samples;Min_cycle;Max_cycle;Signal;HPM_P1;HPM_P2
2023/05/07 00:00:34;;;;;;;8.27;7.03;;;;;;;;;;5035012;28;20409;-78
2023/05/07 00:03:01;;;;;;;7.80;7.10;;;;;;;;;;5035349;28;20547;-78
2023/05/07 00:05:27;;;;;;;8.90;6.90;;;;;;;;;;5017449;28;20912;-78
2023/05/07 00:07:53;;;;;;;7.70;6.50;;;;;;;;;;5017485;28;20491;-78
2023/05/07 00:10:19;;;;;;;7.43;6.73;;;;;;;;;;5035328;28;20503;-78
2023/05/07 00:12:45;;;;;;;8.53;6.73;;;;;;;;;;5035021;28;20401;-78
2023/05/07 00:15:12;;;;;;;12.07;8.10;;;;;;;;;;5035119;28;20758;-78
2023/05/07 00:17:38;;;;;;;11.30;8.70;;;;;;;;;;5034708;28;20925;-78
2023/05/07 00:20:04;;;;;;;8.90;8.00;;;;;;;;;;5017750;28;20484;-78
2023/05/07 00:22:32;;;;;;;8.97;8.03;;;;;;;;;;5034575;28;20453;-78
2023/05/07 00:24:58;;;;;;;10.83;9.40;;;;;;;;;;5017618;28;20416;-78
2023/05/07 00:27:24;;;;;;;10.20;8.83;;;;;;;;;;5001103;28;20413;-77
2023/05/07 00:29:50;;;;;;;10.67;8.60;;;;;;;;;;5034992;28;20490;-78
2023/05/07 00:32:16;;;;;;;13.97;9.70;;;;;;;;;;5035318;28;20448;-78
2023/05/07 00:34:42;;;;;;;10.93;9.70;;;;;;;;;;5017151;28;20405;-78
2023/05/07 00:37:08;;;;;;;16.17;9.30;;;;;;;;;;5034880;28;20409;-77
2023/05/07 00:39:34;;;;;;;9.90;8.90;;;;;;;;;;5034445;28;20397;-78
2023/05/07 00:42:00;;;;;;;13.50;8.27;;;;;;;;;;5034761;28;20484;-78
2023/05/07 00:44:28;;;;;;;11.40;8.30;;;;;;;;;;5034218;28;20472;-82
2023/05/07 00:46:54;;;;;;;9.40;8.50;;;;;;;;;;5034336;28;20436;-78
2023/05/07 00:49:20;;;;;;;10.90;8.20;;;;;;;;;;5034729;28;20447;-78
2023/05/07 00:51:47;;;;;;;9.30;8.00;;;;;;;;;;5034511;28;20401;-78
2023/05/07 00:54:13;;;;;;;10.83;9.10;;;;;;;;;;5016922;28;20412;-77
2023/05/07 00:56:40;;;;;;;13.33;8.83;;;;;;;;;;5017197;28;20840;-78
2023/05/07 00:59:06;;;;;;;13.20;9.50;;;;;;;;;;5000406;28;20413;-78
2023/05/07 01:01:33;;;;;;;13.57;9.37;;;;;;;;;;5033708;28;20563;-78
2023/05/07 01:03:59;;;;;;;19.90;11.40;;;;;;;;;;5034311;28;20476;-78
2023/05/07 01:06:27;;;;;;;12.70;10.43;;;;;;;;;;5016780;28;20420;-78
2023/05/07 01:08:56;;;;;;;19.13;11.90;;;;;;;;;;5034407;28;20439;-77
2023/05/07 01:11:22;;;;;;;19.00;12.67;;;;;;;;;;5034274;28;20413;-77
2023/05/07 01:13:50;;;;;;;18.57;13.33;;;;;;;;;;5016673;28;20412;-77
2023/05/07 01:16:15;;;;;;;21.33;14.30;;;;;;;;;;5016448;28;20483;-77
2023/05/07 01:18:41;;;;;;;20.23;14.03;;;;;;;;;;4999868;28;20444;-77
2023/05/07 01:21:09;;;;;;;14.70;11.63;;;;;;;;;;5016801;28;20826;-78
2023/05/07 01:23:35;;;;;;;15.77;11.97;;;;;;;;;;5016416;28;20495;-77
2023/05/07 01:26:01;;;;;;;15.70;12.13;;;;;;;;;;5034280;28;20409;-77
2023/05/07 01:28:27;;;;;;;17.40;12.63;;;;;;;;;;5016580;28;20770;-77
2023/05/07 01:30:56;;;;;;;18.10;12.83;;;;;;;;;;5016384;28;20448;-78
2023/05/07 01:33:22;;;;;;;13.93;12.33;;;;;;;;;;5033891;28;20899;-78
2023/05/07 01:35:49;;;;;;;19.97;13.47;;;;;;;;;;5033777;28;20928;-78
2023/05/07 01:38:16;;;;;;;18.00;12.00;;;;;;;;;;5034485;28;20741;-77
2023/05/07 01:40:42;;;;;;;17.37;13.50;;;;;;;;;;5033733;28;20439;-78
2023/05/07 01:43:08;;;;;;;13.83;11.70;;;;;;;;;;5034409;28;20445;-78
2023/05/07 01:45:34;;;;;;;15.20;12.43;;;;;;;;;;5016522;28;20417;-78
2023/05/07 01:48:01;;;;;;;18.67;11.97;;;;;;;;;;5016189;28;20425;-77
2023/05/07 01:50:27;;;;;;;16.03;11.10;;;;;;;;;;5033785;28;20397;-77
2023/05/07 01:52:53;;;;;;;22.57;12.57;;;;;;;;;;5016144;28;20769;-77
2023/05/07 01:55:19;;;;;;;15.13;11.27;;;;;;;;;;5033864;28;20867;-78
2023/05/07 01:57:45;;;;;;;15.83;10.70;;;;;;;;;;5033869;28;20412;-77
2023/05/07 02:00:12;;;;;;;19.13;12.13;;;;;;;;;;5036758;28;20877;-78
2023/05/07 02:02:38;;;;;;;15.30;10.97;;;;;;;;;;5036859;28;20567;-78
2023/05/07 02:05:04;;;;;;;18.00;12.13;;;;;;;;;;5037758;28;20374;-78
2023/05/07 02:07:30;;;;;;;16.97;11.83;;;;;;;;;;5037338;28;20397;-78
2023/05/07 02:09:56;;;;;;;15.50;11.80;;;;;;;;;;5037009;28;20811;-77
2023/05/07 02:12:23;;;;;;;16.57;11.50;;;;;;;;;;5019716;28;20448;-77
2023/05/07 02:14:49;;;;;;;19.17;11.80;;;;;;;;;;5019094;28;20896;-77
2023/05/07 02:17:15;;;;;;;17.63;12.60;;;;;;;;;;5037376;28;20790;-78
2023/05/07 02:19:41;;;;;;;16.30;11.17;;;;;;;;;;5036954;28;20396;-79
2023/05/07 02:22:07;;;;;;;15.53;10.80;;;;;;;;;;5037406;28;20868;-78
2023/05/07 02:24:33;;;;;;;14.50;10.70;;;;;;;;;;5037043;28;20395;-79
2023/05/07 02:27:00;;;;;;;17.77;12.30;;;;;;;;;;5019743;28;20491;-78
2023/05/07 02:29:26;;;;;;;14.93;11.13;;;;;;;;;;5019850;28;20485;-78
2023/05/07 02:31:52;;;;;;;13.27;11.23;;;;;;;;;;5037261;28;20428;-78
2023/05/07 02:34:19;;;;;;;17.10;10.97;;;;;;;;;;5019549;28;20412;-78
2023/05/07 02:36:45;;;;;;;16.70;11.47;;;;;;;;;;5002899;28;20511;-78
2023/05/07 02:39:11;;;;;;;15.60;11.03;;;;;;;;;;5018733;28;20924;-78
2023/05/07 02:41:37;;;;;;;16.33;11.57;;;;;;;;;;5036581;28;20466;-78
2023/05/07 02:44:03;;;;;;;14.53;11.70;;;;;;;;;;5036617;28;20944;-78
2023/05/07 02:46:29;;;;;;;13.43;10.83;;;;;;;;;;5036715;28;20404;-78
2023/05/07 02:48:55;;;;;;;13.40;10.33;;;;;;;;;;5036639;28;20756;-78
2023/05/07 02:51:22;;;;;;;12.20;10.27;;;;;;;;;;5036814;28;20401;-78
2023/05/07 02:53:48;;;;;;;15.47;11.07;;;;;;;;;;5018891;28;20845;-78
2023/05/07 02:56:14;;;;;;;19.83;13.20;;;;;;;;;;5036575;28;20431;-78
2023/05/07 02:58:41;;;;;;;18.10;11.73;;;;;;;;;;5036225;28;20408;-78
2023/05/07 03:01:08;;;;;;;14.27;10.80;;;;;;;;;;5018340;28;20472;-78
2023/05/07 03:03:34;;;;;;;15.47;10.50;;;;;;;;;;5018718;28;20460;-78
2023/05/07 03:06:00;;;;;;;13.00;11.20;;;;;;;;;;5036301;28;20425;-78
2023/05/07 03:08:26;;;;;;;15.37;10.30;;;;;;;;;;5036486;28;20459;-78
2023/05/07 03:10:52;;;;;;;14.27;10.63;;;;;;;;;;5018038;28;20904;-78
2023/05/07 03:13:18;;;;;;;17.60;13.03;;;;;;;;;;5018568;28;20471;-78
2023/05/07 03:15:44;;;;;;;17.50;11.70;;;;;;;;;;5036423;28;20376;-78
2023/05/07 03:18:10;;;;;;;16.53;12.50;;;;;;;;;;5036137;28;20397;-77
2023/05/07 03:20:36;;;;;;;16.53;11.03;;;;;;;;;;5036415;28;20367;-81
2023/05/07 03:23:02;;;;;;;15.27;10.40;;;;;;;;;;5017887;28;20579;-78
2023/05/07 03:25:29;;;;;;;15.40;10.80;;;;;;;;;;5002096;28;20416;-78
2023/05/07 03:27:55;;;;;;;17.20;11.33;;;;;;;;;;5036104;28;20900;-78
2023/05/07 03:30:21;;;;;;;15.97;11.83;;;;;;;;;;5018513;28;20401;-78
2023/05/07 03:32:47;;;;;;;18.77;11.57;;;;;;;;;;5035863;28;20411;-78
2023/05/07 03:35:14;;;;;;;16.07;11.10;;;;;;;;;;5017784;28;20447;-78
2023/05/07 03:37:40;;;;;;;14.30;11.77;;;;;;;;;;5001476;28;20996;-78
2023/05/07 03:40:07;;;;;;;14.60;11.30;;;;;;;;;;5018219;28;20754;-78
2023/05/07 03:42:33;;;;;;;23.30;12.40;;;;;;;;;;5035614;28;20427;-78
2023/05/07 03:44:59;;;;;;;16.37;10.90;;;;;;;;;;5034998;28;20739;-78
2023/05/07 03:47:25;;;;;;;18.60;10.30;;;;;;;;;;5017713;28;20409;-77
2023/05/07 03:49:52;;;;;;;18.63;10.73;;;;;;;;;;5035443;28;20484;-78
2023/05/07 03:52:23;;;;;;;14.50;10.73;;;;;;;;;;5001849;28;20423;-77
2023/05/07 03:54:49;;;;;;;15.40;11.33;;;;;;;;;;5017694;28;20401;-78
2023/05/07 03:57:15;;;;;;;13.80;11.10;;;;;;;;;;5035790;28;20404;-78
2023/05/07 03:59:41;;;;;;;18.77;12.90;;;;;;;;;;5017966;28;20470;-78
2023/05/07 04:02:07;;;;;;;16.03;10.83;;;;;;;;;;5017276;28;20957;-78
2023/05/07 04:04:33;;;;;;;13.77;12.20;;;;;;;;;;5017472;28;20530;-77
2023/05/07 04:07:00;;;;;;;17.73;11.90;;;;;;;;;;5001271;28;20420;-77
2023/05/07 04:09:26;;;;;;;16.77;11.63;;;;;;;;;;5001734;28;20471;-78
2023/05/07 04:11:52;;;;;;;13.80;10.60;;;;;;;;;;5017656;28;20401;-77
2023/05/07 04:14:18;;;;;;;16.80;12.97;;;;;;;;;;5035154;28;20763;-77
2023/05/07 04:16:44;;;;;;;20.60;12.93;;;;;;;;;;5034810;28;20503;-78
2023/05/07 04:19:10;;;;;;;19.40;12.10;;;;;;;;;;5017424;28;20475;-77
2023/05/07 04:21:36;;;;;;;16.30;12.40;;;;;;;;;;5016821;28;20443;-77
2023/05/07 04:24:03;;;;;;;16.33;11.90;;;;;;;;;;5016972;28;20460;-77
2023/05/07 04:26:30;;;;;;;14.83;11.20;;;;;;;;;;5017134;28;20405;-78
2023/05/07 04:28:57;;;;;;;17.13;12.60;;;;;;;;;;5034592;28;20413;-77
2023/05/07 04:31:23;;;;;;;15.93;10.53;;;;;;;;;;5017056;28;20432;-77
2023/05/07 04:33:50;;;;;;;17.63;12.30;;;;;;;;;;5016865;28;20417;-77
2023/05/07 04:36:16;;;;;;;17.77;11.40;;;;;;;;;;5016847;28;20412;-77
2023/05/07 04:38:42;;;;;;;15.60;11.10;;;;;;;;;;5034491;28;20484;-78
2023/05/07 04:41:09;;;;;;;16.57;11.60;;;;;;;;;;5017053;28;20433;-78
2023/05/07 04:43:35;;;;;;;13.30;11.10;;;;;;;;;;5034488;28;20460;-77
2023/05/07 04:46:01;;;;;;;21.50;13.27;;;;;;;;;;5034343;28;20400;-78
2023/05/07 04:48:28;;;;;;;14.37;11.50;;;;;;;;;;5034780;28;20401;-77
2023/05/07 04:50:54;;;;;;;18.53;12.40;;;;;;;;;;5034458;28;20409;-77
2023/05/07 04:53:21;;;;;;;18.67;12.80;;;;;;;;;;5034554;28;20450;-77
2023/05/07 04:55:47;;;;;;;14.30;12.37;;;;;;;;;;5034186;28;20743;-77
2023/05/07 04:58:13;;;;;;;13.30;11.07;;;;;;;;;;5034528;28;20393;-78
2023/05/07 05:00:39;;;;;;;13.03;11.40;;;;;;;;;;5034223;28;20411;-77
2023/05/07 05:03:07;;;;;;;17.00;12.43;;;;;;;;;;5016340;28;20472;-77
2023/05/07 05:05:33;;;;;;;16.07;12.33;;;;;;;;;;5034345;28;20412;-78
2023/05/07 05:07:59;;;;;;;14.73;12.40;;;;;;;;;;5016507;28;20408;-77
2023/05/07 05:10:25;;;;;;;11.43;10.27;;;;;;;;;;5034324;28;20795;-77
2023/05/07 05:12:51;;;;;;;14.50;11.03;;;;;;;;;;5016404;28;20405;-78
2023/05/07 05:15:17;;;;;;;14.40;10.50;;;;;;;;;;5034470;28;20409;-77
2023/05/07 05:17:44;;;;;;;11.67;9.93;;;;;;;;;;5016376;28;20961;-79
2023/05/07 05:20:11;;;;;;;13.23;10.20;;;;;;;;;;5034351;28;20413;-78
2023/05/07 05:22:37;;;;;;;10.53;9.43;;;;;;;;;;5034403;28;20459;-78
2023/05/07 05:25:03;;;;;;;9.10;7.60;;;;;;;;;;4999856;28;20519;-77
2023/05/07 05:27:29;;;;;;;10.37;8.40;;;;;;;;;;5034129;28;20401;-77
2023/05/07 05:29:55;;;;;;;9.50;8.60;;;;;;;;;;5016194;28;20994;-78
2023/05/07 05:32:22;;;;;;;14.23;9.13;;;;;;;;;;5034642;28;20480;-78
2023/05/07 05:34:48;;;;;;;10.80;8.40;;;;;;;;;;5038070;28;20500;-78
2023/05/07 05:37:14;;;;;;;10.40;8.10;;;;;;;;;;5020350;28;20409;-78
2023/05/07 05:39:40;;;;;;;9.37;7.80;;;;;;;;;;5020242;28;20417;-77
2023/05/07 05:42:06;;;;;;;11.10;7.40;;;;;;;;;;5038010;28;20397;-78
2023/05/07 05:44:32;;;;;;;9.33;8.00;;;;;;;;;;5037998;28;20464;-78
2023/05/07 05:46:59;;;;;;;12.10;7.97;;;;;;;;;;5037654;28;20736;-77
2023/05/07 05:49:25;;;;;;;6.80;6.17;;;;;;;;;;5038328;28;20415;-78
2023/05/07 05:51:51;;;;;;;8.27;7.20;;;;;;;;;;5020090;28;20405;-78
2023/05/07 05:54:17;;;;;;;9.70;6.70;;;;;;;;;;5020194;28;20475;-78
2023/05/07 05:56:43;;;;;;;7.93;7.13;;;;;;;;;;5037822;28;20400;-78
2023/05/07 05:59:09;;;;;;;7.37;5.73;;;;;;;;;;5037434;28;20413;-78
2023/05/07 06:01:35;;;;;;;8.70;6.70;;;;;;;;;;5019487;28;20924;-78
2023/05/07 06:04:01;;;;;;;6.00;5.30;;;;;;;;;;5003301;28;20872;-78
2023/05/07 06:06:28;;;;;;;6.40;5.60;;;;;;;;;;5020266;28;20401;-79
2023/05/07 06:08:53;;;;;;;7.90;5.50;;;;;;;;;;5003420;28;20878;-78
2023/05/07 06:11:20;;;;;;;7.23;6.10;;;;;;;;;;5003936;28;20416;-78
2023/05/07 06:13:46;;;;;;;6.87;6.10;;;;;;;;;;5019712;28;20743;-78
2023/05/07 06:16:12;;;;;;;6.90;5.43;;;;;;;;;;5019928;28;20423;-78
2023/05/07 06:18:38;;;;;;;6.57;5.90;;;;;;;;;;5037045;28;20409;-78
2023/05/07 06:21:04;;;;;;;10.73;5.40;;;;;;;;;;5036899;28;20405;-78
2023/05/07 06:23:30;;;;;;;7.90;5.87;;;;;;;;;;5036824;28;20950;-78
2023/05/07 06:25:56;;;;;;;6.30;5.03;;;;;;;;;;5019406;28;20388;-79
2023/05/07 06:28:22;;;;;;;5.97;4.80;;;;;;;;;;5037164;28;20471;-78
2023/05/07 06:30:49;;;;;;;6.63;5.10;;;;;;;;;;5002709;28;20478;-80
2023/05/07 06:33:15;;;;;;;5.30;3.90;;;;;;;;;;5003511;28;20452;-78
2023/05/07 06:35:41;;;;;;;3.90;3.60;;;;;;;;;;5037014;28;20413;-78
2023/05/07 06:38:07;;;;;;;4.80;3.60;;;;;;;;;;5019334;28;20384;-78
2023/05/07 06:40:33;;;;;;;4.63;3.60;;;;;;;;;;5036908;28;20376;-79
2023/05/07 06:42:59;;;;;;;4.20;3.80;;;;;;;;;;5036714;28;20878;-79
2023/05/07 06:45:25;;;;;;;4.83;4.30;;;;;;;;;;5018735;28;20407;-78
2023/05/07 06:47:51;;;;;;;5.10;3.53;;;;;;;;;;5019131;28;20401;-79
2023/05/07 06:50:17;;;;;;;4.20;3.67;;;;;;;;;;5002675;28;20409;-78
2023/05/07 06:52:43;;;;;;;5.10;3.47;;;;;;;;;;5003202;28;20511;-81
2023/05/07 06:55:11;;;;;;;4.97;3.80;;;;;;;;;;5018800;28;20877;-83
2023/05/07 06:57:37;;;;;;;7.13;3.80;;;;;;;;;;5035906;28;20433;-83
2023/05/07 07:00:04;;;;;;;5.40;4.50;;;;;;;;;;5018142;28;20395;-83
2023/05/07 07:02:30;;;;;;;4.40;4.00;;;;;;;;;;5036273;28;20769;-76
2023/05/07 07:04:56;;;;;;;3.77;3.33;;;;;;;;;;5035806;28;20871;-76
2023/05/07 07:07:22;;;;;;;4.40;4.00;;;;;;;;;;5018456;28;20459;-76
2023/05/07 07:09:48;;;;;;;4.17;3.70;;;;;;;;;;5036246;28;20900;-76
2023/05/07 07:12:14;;;;;;;4.17;3.77;;;;;;;;;;5036391;28;20488;-76
2023/05/07 07:14:40;;;;;;;5.13;3.43;;;;;;;;;;5018837;28;20441;-76
2023/05/07 07:17:06;;;;;;;5.00;3.77;;;;;;;;;;5035935;28;20865;-77
2023/05/07 07:19:32;;;;;;;4.00;3.43;;;;;;;;;;5036535;28;20783;-76
2023/05/07 07:21:58;;;;;;;6.10;4.27;;;;;;;;;;5036255;28;20383;-77
2023/05/07 07:24:24;;;;;;;5.10;3.83;;;;;;;;;;5035803;28;20500;-77
2023/05/07 07:26:50;;;;;;;3.90;3.50;;;;;;;;;;5036034;28;20458;-77
2023/05/07 07:29:16;;;;;;;5.10;4.00;;;;;;;;;;5036179;28;20401;-76
2023/05/07 07:31:42;;;;;;;5.20;3.70;;;;;;;;;;5035857;28;20413;-77
2023/05/07 07:34:08;;;;;;;7.67;4.10;;;;;;;;;;5035799;28;20503;-76
2023/05/07 07:36:34;;;;;;;6.00;3.63;;;;;;;;;;5036345;28;20416;-76
2023/05/07 07:39:00;;;;;;;4.03;3.63;;;;;;;;;;5018181;28;20453;-77
2023/05/07 07:41:26;;;;;;;6.00;3.97;;;;;;;;;;5035654;28;20405;-76
2023/05/07 07:43:52;;;;;;;7.00;3.43;;;;;;;;;;5035432;28;20449;-81
2023/05/07 07:46:18;;;;;;;3.30;3.00;;;;;;;;;;5035654;28;20434;-76
2023/05/07 07:48:44;;;;;;;4.87;3.00;;;;;;;;;;5035595;28;20452;-76
2023/05/07 07:51:10;;;;;;;7.10;3.90;;;;;;;;;;5035332;28;20378;-76
2023/05/07 07:53:36;;;;;;;4.90;3.70;;;;;;;;;;5017857;28;20794;-76
2023/05/07 07:56:02;;;;;;;4.50;3.10;;;;;;;;;;5034216;28;20391;-77
2023/05/07 07:58:28;;;;;;;3.47;3.10;;;;;;;;;;5017184;28;20405;-76
2023/05/07 08:00:55;;;;;;;5.53;3.57;;;;;;;;;;5017052;28;20468;-77
2023/05/07 08:03:22;;;;;;;4.37;3.00;;;;;;;;;;5035110;28;20473;-76
2023/05/07 08:05:50;;;;;;;4.23;3.37;;;;;;;;;;5035208;28;20497;-76
2023/05/07 08:08:16;;;;;;;3.17;2.80;;;;;;;;;;5034968;28;20405;-76
2023/05/07 08:10:42;;;;;;;4.27;2.40;;;;;;;;;;5035520;28;20409;-76
2023/05/07 08:13:08;;;;;;;5.17;2.93;;;;;;;;;;5034616;28;20412;-76
2023/05/07 08:15:34;;;;;;;3.70;2.90;;;;;;;;;;5017333;28;20429;-77
2023/05/07 08:18:06;;;;;;;5.27;2.53;;;;;;;;;;5091253;28;20524;-75
2023/05/07 08:20:33;;;;;;;3.77;2.00;;;;;;;;;;5092080;28;20465;-74
2023/05/07 08:22:59;;;;;;;3.47;2.60;;;;;;;;;;5091747;28;20690;-75
2023/05/07 08:25:25;;;;;;;3.27;2.80;;;;;;;;;;5091749;28;20430;-75
2023/05/07 08:27:51;;;;;;;2.73;2.40;;;;;;;;;;5091793;28;20776;-74
2023/05/07 08:30:17;;;;;;;3.53;2.50;;;;;;;;;;5091714;28;20380;-75
2023/05/07 08:32:43;;;;;;;4.30;2.97;;;;;;;;;;5091672;28;20407;-75
2023/05/07 08:35:09;;;;;;;4.00;3.20;;;;;;;;;;5091062;28;20459;-75
2023/05/07 08:37:35;;;;;;;3.53;2.43;;;;;;;;;;5091510;28;20457;-75
2023/05/07 08:40:01;;;;;;;5.23;2.80;;;;;;;;;;5091191;28;20749;-75
2023/05/07 08:42:28;;;;;;;4.67;2.50;;;;;;;;;;5090288;28;20406;-75
2023/05/07 08:44:59;;;;;;;3.70;3.00;;;;;;;;;;5090900;28;20736;-75
2023/05/07 08:47:28;;;;;;;6.50;2.70;;;;;;;;;;5090774;28;20501;-75
2023/05/07 08:49:55;;;;;;;3.70;2.67;;;;;;;;;;5090726;28;20380;-75
2023/05/07 08:52:21;;;;;;;4.87;2.50;;;;;;;;;;5090878;28;20434;-75
2023/05/07 08:54:47;;;;;;;7.33;3.00;;;;;;;;;;5072980;28;20402;-75
2023/05/07 08:57:13;;;;;;;3.60;2.90;;;;;;;;;;5089049;28;20992;-75
2023/05/07 08:59:40;;;;;;;3.83;2.67;;;;;;;;;;5090676;28;20838;-75
2023/05/07 09:02:09;;;;;;;3.07;2.67;;;;;;;;;;5089258;28;20418;-75
2023/05/07 09:04:35;;;;;;;5.33;3.13;;;;;;;;;;5090419;28;20398;-75
2023/05/07 09:07:05;;;;;;;4.77;3.20;;;;;;;;;;5090611;28;20496;-75
2023/05/07 09:09:32;;;;;;;6.20;3.43;;;;;;;;;;5090402;28;20406;-75
2023/05/07 09:11:59;;;;;;;5.23;2.90;;;;;;;;;;5088782;28;20502;-79
2023/05/07 09:14:25;;;;;;;7.50;3.17;;;;;;;;;;5088890;28;20456;-75
2023/05/07 09:16:54;;;;;;;8.30;2.90;;;;;;;;;;5088368;28;20988;-75
2023/05/07 09:19:24;;;;;;;4.80;2.47;;;;;;;;;;5088582;28;20464;-75
2023/05/07 09:21:50;;;;;;;3.27;2.00;;;;;;;;;;5089985;28;20790;-75
2023/05/07 09:24:16;;;;;;;2.83;2.07;;;;;;;;;;5088722;28;20485;-77
2023/05/07 09:26:42;;;;;;;4.47;1.90;;;;;;;;;;5089569;28;20414;-86
2023/05/07 09:29:10;;;;;;;4.03;1.90;;;;;;;;;;5060404;28;20419;-84
2023/05/07 09:31:37;;;;;;;2.03;1.80;;;;;;;;;;5075081;28;20418;-84
2023/05/07 09:34:05;;;;;;;3.33;2.30;;;;;;;;;;5075974;28;20779;-85
2023/05/07 09:36:32;;;;;;;2.43;2.20;;;;;;;;;;5074895;28;20528;-84
2023/05/07 09:39:02;;;;;;;4.70;2.00;;;;;;;;;;5074613;28;20426;-86
2023/05/07 09:41:31;;;;;;;2.80;2.03;;;;;;;;;;5074477;28;20399;-84
2023/05/07 09:43:58;;;;;;;2.63;1.90;;;;;;;;;;5075614;28;20915;-84
2023/05/07 09:46:34;;;;;;;3.70;1.83;;;;;;;;;;5074232;28;20430;-84
2023/05/07 09:49:03;;;;;;;5.10;3.00;;;;;;;;;;5074469;28;20453;-87
2023/05/07 09:51:29;;;;;;;3.60;2.10;;;;;;;;;;5075708;28;20450;-83
2023/05/07 09:53:57;;;;;;;2.40;2.17;;;;;;;;;;5074909;28;20419;-89
2023/05/07 09:56:26;;;;;;;2.90;2.03;;;;;;;;;;5075026;28;20860;-91
2023/05/07 09:58:53;;;;;;;2.97;2.30;;;;;;;;;;5076778;28;20437;-92
2023/05/07 10:01:21;;;;;;;2.60;2.03;;;;;;;;;;5075853;28;20403;-93
2023/05/07 10:03:49;;;;;;;6.50;2.30;;;;;;;;;;5076382;28;20415;-93
2023/05/07 10:06:16;;;;;;;2.13;2.00;;;;;;;;;;5076066;28;20422;-92
2023/05/07 10:08:43;;;;;;;2.57;2.10;;;;;;;;;;5076020;28;20449;-91
2023/05/07 10:11:10;;;;;;;4.50;2.03;;;;;;;;;;5076114;28;20415;-92
2023/05/07 10:13:37;;;;;;;2.50;2.10;;;;;;;;;;5075812;28;20395;-92
2023/05/07 10:16:06;;;;;;;2.40;2.03;;;;;;;;;;5075480;28;20495;-93
2023/05/07 10:18:32;;;;;;;3.63;1.90;;;;;;;;;;5075651;28;20423;-92
2023/05/07 10:21:05;;;;;;;4.20;1.93;;;;;;;;;;5075611;28;20561;-92
2023/05/07 10:23:32;;;;;;;3.83;2.20;;;;;;;;;;5076413;28;20469;-92
2023/05/07 10:25:59;;;;;;;3.83;2.30;;;;;;;;;;5074702;28;20407;-92
2023/05/07 10:28:26;;;;;;;4.00;2.30;;;;;;;;;;5075667;28;20427;-92
2023/05/07 10:31:05;;;;;;;3.30;2.07;;;;;;;;;;5076062;28;20407;-93
2023/05/07 10:33:32;;;;;;;3.67;1.70;;;;;;;;;;5076078;28;20839;-93
2023/05/07 10:36:04;;;;;;;3.10;2.20;;;;;;;;;;5075487;28;20475;-92
2023/05/07 10:38:30;;;;;;;2.20;2.00;;;;;;;;;;5055776;28;20434;-92
2023/05/07 10:40:56;;;;;;;3.20;1.87;;;;;;;;;;5063357;28;20420;-93
2023/05/07 10:43:25;;;;;;;2.53;2.33;;;;;;;;;;5057637;28;20705;-93
2023/05/07 10:46:13;;;;;;;5.47;2.10;;;;;;;;;;5058214;28;20919;-93
2023/05/07 10:49:11;;;;;;;2.33;1.60;;;;;;;;;;5057933;28;20830;-92
2023/05/07 10:51:38;;;;;;;1.60;1.50;;;;;;;;;;5030422;28;20511;-92
2023/05/07 10:54:18;;;;;;;2.37;1.87;;;;;;;;;;5056606;28;20451;-93
2023/05/07 10:56:44;;;;;;;2.97;1.83;;;;;;;;;;5056312;28;20468;-93
2023/05/07 10:59:30;;;;;;;2.63;2.00;;;;;;;;;;5056053;28;20416;-93
2023/05/07 11:01:57;;;;;;;3.07;1.90;;;;;;;;;;5056159;28;20455;-92
2023/05/07 11:04:27;;;;;;;2.73;1.90;;;;;;;;;;5057008;28;20408;-93
2023/05/07 11:07:13;;;;;;;2.03;1.73;;;;;;;;;;5055943;28;20981;-92
2023/05/07 11:09:52;;;;;;;3.00;1.70;;;;;;;;;;5058615;28;20778;-91
2023/05/07 11:12:38;;;;;;;2.80;2.07;;;;;;;;;;5054986;28;20419;-92
2023/05/07 11:15:08;;;;;;;4.30;2.40;;;;;;;;;;5055256;28;20408;-91
2023/05/07 11:17:35;;;;;;;2.47;2.27;;;;;;;;;;5054654;28;20484;-92
2023/05/07 11:20:02;;;;;;;3.43;1.80;;;;;;;;;;5054837;28;20431;-92
2023/05/07 11:22:35;;;;;;;3.90;2.40;;;;;;;;;;5055854;28;20397;-94
2023/05/07 11:25:01;;;;;;;3.17;2.30;;;;;;;;;;5055150;28;20454;-92
2023/05/07 11:27:29;;;;;;;3.70;2.10;;;;;;;;;;5054787;28;20443;-92
2023/05/07 11:29:56;;;;;;;2.50;2.30;;;;;;;;;;5055423;28;20985;-92
2023/05/07 11:32:29;;;;;;;2.37;1.97;;;;;;;;;;5060164;28;20423;-80
2023/05/07 11:34:56;;;;;;;2.37;2.10;;;;;;;;;;5072136;28;20416;-79
2023/05/07 11:37:23;;;;;;;1.73;1.53;;;;;;;;;;5073135;28;20454;-79
2023/05/07 11:39:51;;;;;;;2.10;1.80;;;;;;;;;;5072296;28;20411;-79
2023/05/07 11:42:37;;;;;;;6.03;1.90;;;;;;;;;;5073131;28;20411;-79
2023/05/07 11:45:03;;;;;;;2.27;1.73;;;;;;;;;;5072299;28;20433;-79
2023/05/07 11:47:32;;;;;;;1.97;1.70;;;;;;;;;;5072904;28;20419;-79
2023/05/07 11:50:03;;;;;;;1.60;1.50;;;;;;;;;;5072192;28;20419;-79
2023/05/07 11:52:29;;;;;;;2.60;1.80;;;;;;;;;;5071711;28;20422;-79
2023/05/07 11:54:56;;;;;;;2.10;1.83;;;;;;;;;;5072113;28;20411;-79
2023/05/07 11:57:25;;;;;;;3.07;1.57;;;;;;;;;;5073115;28;20459;-79
2023/05/07 11:59:58;;;;;;;2.00;1.70;;;;;;;;;;5072086;28;20915;-79
2023/05/07 12:02:28;;;;;;;4.10;1.90;;;;;;;;;;5071924;28;20399;-79
2023/05/07 12:04:54;;;;;;;2.87;1.43;;;;;;;;;;5073295;28;20406;-79
2023/05/07 12:07:20;;;;;;;4.10;1.77;;;;;;;;;;5071514;28;20476;-79
2023/05/07 12:09:47;;;;;;;2.33;1.43;;;;;;;;;;5071470;28;20498;-79
2023/05/07 12:12:15;;;;;;;1.70;1.60;;;;;;;;;;5071514;28;20425;-79
2023/05/07 12:14:45;;;;;;;1.70;1.60;;;;;;;;;;5072021;28;20454;-79
2023/05/07 12:17:11;;;;;;;1.97;1.60;;;;;;;;;;5071238;28;20921;-80
2023/05/07 12:19:38;;;;;;;3.27;1.83;;;;;;;;;;5073042;28;20399;-79
2023/05/07 12:22:04;;;;;;;2.63;1.70;;;;;;;;;;5071654;28;20805;-79
2023/05/07 12:24:46;;;;;;;3.37;1.60;;;;;;;;;;5072808;28;20435;-79
2023/05/07 12:27:13;;;;;;;3.97;1.80;;;;;;;;;;5072854;28;20400;-82
2023/05/07 12:29:40;;;;;;;2.20;2.00;;;;;;;;;;5071693;28;20481;-78
2023/05/07 12:32:07;;;;;;;5.40;1.57;;;;;;;;;;5071859;28;20414;-78
2023/05/07 12:34:33;;;;;;;2.93;1.60;;;;;;;;;;5072819;28;20461;-79
2023/05/07 12:37:03;;;;;;;2.20;2.00;;;;;;;;;;5072330;28;20437;-80
2023/05/07 12:39:29;;;;;;;2.40;2.20;;;;;;;;;;5072482;28;20753;-79
2023/05/07 12:41:56;;;;;;;2.30;2.00;;;;;;;;;;5071647;28;20466;-78
2023/05/07 12:44:23;;;;;;;4.20;2.03;;;;;;;;;;5071354;28;20407;-78
2023/05/07 12:46:49;;;;;;;2.83;1.70;;;;;;;;;;5072564;28;20494;-78
2023/05/07 12:49:17;;;;;;;2.17;2.07;;;;;;;;;;5054812;28;20427;-79
2023/05/07 12:51:43;;;;;;;3.73;2.30;;;;;;;;;;5071548;28;20945;-78
2023/05/07 12:54:09;;;;;;;2.10;1.67;;;;;;;;;;5072554;28;20913;-78
2023/05/07 12:56:38;;;;;;;2.07;1.87;;;;;;;;;;5054809;28;20467;-79
2023/05/07 12:59:04;;;;;;;1.80;1.70;;;;;;;;;;5071530;28;20454;-79
2023/05/07 13:01:31;;;;;;;1.77;1.67;;;;;;;;;;5054805;28;21413;-79
2023/05/07 13:04:01;;;;;;;3.17;2.70;;;;;;;;;;5073596;28;20414;-78
2023/05/07 13:06:27;;;;;;;5.83;2.20;;;;;;;;;;5074973;28;20422;-78
2023/05/07 13:08:53;;;;;;;3.63;2.27;;;;;;;;;;5076340;28;20395;-79
2023/05/07 13:11:20;;;;;;;1.77;1.67;;;;;;;;;;5074855;28;20425;-79
2023/05/07 13:13:46;;;;;;;3.50;2.70;;;;;;;;;;5058657;28;20760;-78
2023/05/07 13:16:12;;;;;;;9.30;2.80;;;;;;;;;;5074267;28;20490;-79
2023/05/07 13:18:39;;;;;;;3.37;2.80;;;;;;;;;;5075371;28;20419;-78
2023/05/07 13:21:05;;;;;;;6.33;3.10;;;;;;;;;;5076294;28;20426;-78
2023/05/07 13:23:31;;;;;;;4.50;3.77;;;;;;;;;;5075685;28;20902;-78
2023/05/07 13:25:57;;;;;;;5.47;4.00;;;;;;;;;;5074597;28;20445;-78
2023/05/07 13:28:24;;;;;;;4.80;4.40;;;;;;;;;;5074594;28;20752;-78
2023/05/07 13:30:51;;;;;;;8.20;4.80;;;;;;;;;;5074805;28;20389;-78
2023/05/07 13:33:17;;;;;;;7.40;5.27;;;;;;;;;;5075708;28;20400;-79
2023/05/07 13:35:43;;;;;;;5.50;4.40;;;;;;;;;;5074894;28;20477;-78
2023/05/07 13:38:09;;;;;;;4.90;4.50;;;;;;;;;;5074564;28;20532;-79
2023/05/07 13:40:36;;;;;;;9.13;5.03;;;;;;;;;;5057824;28;20455;-79
2023/05/07 13:43:02;;;;;;;6.50;5.80;;;;;;;;;;5075832;28;20429;-79
2023/05/07 13:45:29;;;;;;;12.67;6.20;;;;;;;;;;5074302;28;20930;-80
2023/05/07 13:47:55;;;;;;;9.53;6.60;;;;;;;;;;5057587;28;20435;-80
2023/05/07 13:50:21;;;;;;;9.23;7.10;;;;;;;;;;5075194;28;20829;-80
2023/05/07 13:52:50;;;;;;;4.40;3.90;;;;;;;;;;5075729;28;20718;-79
2023/05/07 13:55:17;;;;;;;9.60;4.97;;;;;;;;;;5075603;28;20880;-79
2023/05/07 13:57:43;;;;;;;9.67;6.07;;;;;;;;;;5074459;28;20457;-79
2023/05/07 14:00:10;;;;;;;5.37;4.97;;;;;;;;;;5074330;28;20931;-79
2023/05/07 14:02:36;;;;;;;5.00;4.50;;;;;;;;;;5075189;28;20887;-78
2023/05/07 14:05:02;;;;;;;6.53;4.53;;;;;;;;;;5057703;28;20419;-79
2023/05/07 14:07:28;;;;;;;6.33;3.60;;;;;;;;;;5074058;28;20443;-79
2023/05/07 14:09:55;;;;;;;4.37;3.30;;;;;;;;;;5074097;28;20897;-78
2023/05/07 14:12:21;;;;;;;6.27;3.93;;;;;;;;;;5074910;28;20410;-78
2023/05/07 14:14:47;;;;;;;4.17;3.27;;;;;;;;;;5073863;28;20886;-78
2023/05/07 14:17:13;;;;;;;2.63;2.43;;;;;;;;;;5073734;28;20519;-78
2023/05/07 14:19:39;;;;;;;2.40;2.20;;;;;;;;;;5073772;28;20422;-78
2023/05/07 14:22:05;;;;;;;3.33;2.60;;;;;;;;;;5074231;28;20390;-78
2023/05/07 14:24:31;;;;;;;6.20;2.70;;;;;;;;;;5074058;28;20403;-78
2023/05/07 14:26:57;;;;;;;2.90;2.50;;;;;;;;;;5075292;28;20397;-78
2023/05/07 14:29:23;;;;;;;4.30;2.60;;;;;;;;;;5075056;28;20724;-77
2023/05/07 14:31:49;;;;;;;3.00;2.70;;;;;;;;;;5057325;28;20426;-78